createdAt,value
2022-10-12T00:00:26.087Z,53.99
2022-10-12T00:01:27.917Z,54.09
2022-10-12T00:02:29.649Z,53.49
2022-10-12T00:03:31.762Z,54.09
2022-10-12T00:04:33.535Z,54.13
2022-10-12T00:05:35.266Z,54.13
2022-10-12T00:06:36.973Z,54.10
2022-10-12T00:07:39.023Z,54.00
2022-10-12T00:08:43.702Z,53.84
2022-10-12T00:09:45.414Z,53.74
2022-10-12T00:10:47.147Z,54.22
2022-10-12T00:11:48.888Z,53.84
2022-10-12T00:12:50.658Z,53.89
2022-10-12T00:13:53.848Z,53.83
2022-10-12T00:14:55.599Z,53.85
2022-10-12T00:16:01.829Z,53.95
2022-10-12T00:17:04.233Z,53.94
2022-10-12T00:18:10.408Z,53.83
2022-10-12T00:19:14.194Z,53.87
2022-10-12T00:20:16.224Z,53.80
2022-10-12T00:21:19.286Z,53.97
2022-10-12T00:22:21.101Z,54.08
2022-10-12T00:23:22.804Z,53.90
2022-10-12T00:24:25.418Z,54.10
2022-10-12T00:25:27.269Z,53.93
2022-10-12T00:26:30.431Z,53.76
2022-10-12T00:27:32.344Z,53.85
2022-10-12T00:28:35.700Z,53.96
2022-10-12T00:29:37.731Z,54.00
2022-10-12T00:30:41.137Z,54.17
2022-10-12T00:31:42.964Z,54.24
2022-10-12T00:32:44.723Z,54.00
2022-10-12T00:33:48.114Z,54.14
2022-10-12T00:34:49.874Z,54.08
2022-10-12T00:35:52.997Z,54.02
2022-10-12T00:36:56.504Z,54.09
2022-10-12T00:37:58.235Z,54.19
2022-10-12T00:39:00.649Z,54.32
2022-10-12T00:40:02.575Z,54.30
2022-10-12T00:41:04.672Z,54.28
2022-10-12T00:42:06.448Z,54.32
2022-10-12T00:43:41.822Z,54.32
2022-10-12T00:44:46.891Z,54.20
2022-10-12T00:45:48.675Z,54.10
2022-10-12T00:46:52.902Z,54.10
2022-10-12T00:47:59.916Z,54.38
2022-10-12T00:49:25.143Z,54.10
2022-10-12T00:50:33.204Z,54.06
2022-10-12T00:51:35.081Z,54.15
2022-10-12T00:53:21.153Z,53.78
2022-10-12T00:54:48.369Z,54.09
2022-10-12T00:55:59.503Z,53.99
2022-10-12T00:57:05.901Z,54.04
2022-10-12T00:58:09.052Z,54.00
2022-10-12T00:59:44.242Z,54.01
2022-10-12T01:00:46.977Z,53.89
2022-10-12T01:01:49.775Z,54.03
2022-10-12T01:02:54.770Z,54.09
2022-10-12T01:03:56.495Z,54.10
2022-10-12T01:04:58.960Z,54.17
2022-10-12T01:06:00.810Z,54.21
2022-10-12T01:07:02.551Z,53.98
2022-10-12T01:08:04.368Z,54.23
2022-10-12T01:09:06.119Z,54.25
2022-10-12T01:10:08.407Z,54.35
2022-10-12T01:11:10.234Z,54.18
2022-10-12T01:12:12.668Z,54.49
2022-10-12T01:13:14.812Z,54.14
2022-10-12T01:14:17.230Z,54.16
2022-10-12T01:15:19.067Z,54.18
2022-10-12T01:17:03.748Z,54.11
2022-10-12T01:18:31.740Z,54.19
2022-10-12T01:19:57.029Z,54.01
2022-10-12T01:21:21.087Z,53.92
2022-10-12T01:22:23.025Z,54.30
2022-10-12T01:23:55.748Z,53.91
2022-10-12T01:25:34.593Z,54.16
2022-10-12T01:26:47.943Z,54.04
2022-10-12T01:27:54.165Z,54.30
2022-10-12T01:29:08.423Z,54.12
2022-10-12T01:30:26.564Z,53.99
2022-10-12T01:31:47.619Z,54.02
2022-10-12T01:33:07.996Z,54.22
2022-10-12T01:34:28.871Z,53.90
2022-10-12T01:35:46.019Z,54.01
2022-10-12T01:37:05.179Z,53.94
2022-10-12T01:38:37.210Z,53.93
2022-10-12T01:39:52.183Z,53.64
2022-10-12T01:41:07.067Z,53.77
2022-10-12T01:42:17.694Z,53.86
2022-10-12T01:43:23.475Z,53.89
2022-10-12T01:44:27.060Z,53.84
2022-10-12T01:45:28.777Z,53.79
2022-10-12T01:46:30.403Z,53.74
2022-10-12T01:47:34.681Z,53.61
2022-10-12T01:48:36.520Z,53.72
2022-10-12T01:49:38.570Z,53.83
2022-10-12T01:50:52.299Z,53.65
2022-10-12T01:52:15.638Z,53.80
2022-10-12T01:53:36.811Z,53.80
2022-10-12T01:55:08.211Z,53.84
2022-10-12T01:56:24.842Z,54.00
2022-10-12T01:58:26.709Z,53.85
2022-10-12T01:59:46.410Z,53.92
2022-10-12T02:01:33.228Z,54.01
2022-10-12T02:03:21.799Z,53.72
2022-10-12T02:04:36.756Z,54.09
2022-10-12T02:05:51.858Z,53.94
2022-10-12T02:07:08.000Z,54.08
2022-10-12T02:08:15.546Z,53.79
2022-10-12T02:09:34.713Z,53.87
2022-10-12T02:10:53.521Z,53.90
2022-10-12T02:12:03.302Z,54.00
2022-10-12T02:13:11.611Z,53.98
2022-10-12T02:14:19.412Z,53.98
2022-10-12T02:15:25.028Z,53.79
2022-10-12T02:16:36.429Z,54.20
2022-10-12T02:17:43.283Z,54.46
2022-10-12T02:18:51.910Z,54.59
2022-10-12T02:20:00.262Z,53.97
2022-10-12T02:21:03.813Z,53.74
2022-10-12T02:22:08.772Z,54.10
2022-10-12T02:23:12.302Z,53.84
2022-10-12T02:24:16.838Z,53.89
2022-10-12T02:25:23.723Z,54.10
2022-10-12T02:26:26.894Z,53.82
2022-10-12T02:27:29.693Z,54.13
2022-10-12T02:28:35.960Z,53.80
2022-10-12T02:29:41.809Z,54.04
2022-10-12T02:31:01.549Z,53.57
2022-10-12T02:32:24.026Z,53.97
2022-10-12T02:33:57.770Z,53.96
2022-10-12T02:35:12.889Z,53.88
2022-10-12T02:36:36.457Z,53.59
2022-10-12T02:37:55.098Z,53.94
2022-10-12T02:39:21.908Z,53.48
2022-10-12T02:40:36.070Z,53.71
2022-10-12T02:41:49.640Z,53.48
2022-10-12T02:43:15.853Z,53.57
2022-10-12T02:44:28.824Z,53.63
2022-10-12T02:45:33.505Z,53.64
2022-10-12T02:46:36.715Z,53.62
2022-10-12T02:47:40.454Z,53.53
2022-10-12T02:48:46.240Z,53.32
2022-10-12T02:49:49.340Z,53.29
2022-10-12T02:50:58.277Z,53.73
2022-10-12T02:52:02.112Z,53.23
2022-10-12T02:53:05.061Z,53.41
2022-10-12T02:54:06.877Z,53.74
2022-10-12T02:55:08.729Z,53.31
2022-10-12T02:56:14.722Z,53.71
2022-10-12T02:57:17.173Z,53.62
2022-10-12T02:58:19.774Z,53.51
2022-10-12T02:59:21.600Z,53.70
2022-10-12T03:00:23.528Z,53.29
2022-10-12T03:01:25.316Z,53.50
2022-10-12T03:02:27.049Z,53.70
2022-10-12T03:03:28.975Z,53.31
2022-10-12T03:04:30.691Z,53.84
2022-10-12T03:05:32.406Z,53.25
2022-10-12T03:06:34.129Z,53.91
2022-10-12T03:07:36.023Z,53.49
2022-10-12T03:08:38.056Z,53.72
2022-10-12T03:09:39.805Z,53.70
2022-10-12T03:10:41.528Z,54.09
2022-10-12T03:11:46.209Z,53.50
2022-10-12T03:12:50.330Z,53.99
2022-10-12T03:13:54.753Z,53.61
2022-10-12T03:14:56.499Z,53.65
2022-10-12T03:16:03.345Z,53.58
2022-10-12T03:17:05.121Z,53.70
2022-10-12T03:18:06.854Z,53.33
2022-10-12T03:19:08.631Z,53.34
2022-10-12T03:20:11.113Z,53.76
2022-10-12T03:21:13.121Z,53.48
2022-10-12T03:22:14.859Z,53.54
2022-10-12T03:23:16.574Z,53.74
2022-10-12T03:24:18.298Z,53.82
2022-10-12T03:25:20.032Z,53.90
2022-10-12T03:26:23.058Z,53.40
2022-10-12T03:27:24.943Z,53.56
2022-10-12T03:28:26.865Z,53.88
2022-10-12T03:29:28.663Z,53.60
2022-10-12T03:30:30.413Z,53.31
2022-10-12T03:31:32.118Z,53.41
2022-10-12T03:32:33.915Z,53.62
2022-10-12T03:33:35.625Z,53.63
2022-10-12T03:34:37.348Z,54.08
2022-10-12T03:35:39.892Z,53.72
2022-10-12T03:36:41.601Z,53.94
2022-10-12T03:37:43.399Z,53.72
2022-10-12T03:38:45.165Z,53.80
2022-10-12T03:39:46.893Z,53.76
2022-10-12T03:40:48.684Z,53.71
2022-10-12T03:41:50.400Z,54.14
2022-10-12T03:42:52.151Z,53.70
2022-10-12T03:43:53.870Z,53.92
2022-10-12T03:44:55.587Z,53.51
2022-10-12T03:45:57.432Z,53.71
2022-10-12T03:46:59.218Z,53.80
2022-10-12T03:48:04.878Z,53.84
2022-10-12T03:49:07.208Z,53.47
2022-10-12T03:50:09.455Z,53.58
2022-10-12T03:51:11.243Z,53.37
2022-10-12T03:52:12.946Z,53.87
2022-10-12T03:53:14.677Z,53.62
2022-10-12T03:54:16.557Z,53.49
2022-10-12T03:55:18.306Z,53.15
2022-10-12T03:56:20.077Z,53.74
2022-10-12T03:57:21.802Z,53.66
2022-10-12T03:58:23.549Z,53.87
2022-10-12T03:59:25.344Z,53.28
2022-10-12T04:00:28.077Z,53.63
2022-10-12T04:01:29.895Z,53.41
2022-10-12T04:02:31.697Z,53.26
2022-10-12T04:03:33.394Z,53.60
2022-10-12T04:04:35.438Z,53.91
2022-10-12T04:05:37.204Z,53.87
2022-10-12T04:06:38.983Z,53.52
2022-10-12T04:07:41.039Z,53.28
2022-10-12T04:08:46.028Z,53.40
2022-10-12T04:09:51.534Z,53.10
2022-10-12T04:10:53.287Z,53.31
2022-10-12T04:11:55.016Z,53.84
2022-10-12T04:12:57.284Z,53.30
2022-10-12T04:13:58.997Z,53.78
2022-10-12T04:15:00.782Z,53.78
2022-10-12T04:16:07.530Z,53.31
2022-10-12T04:17:09.307Z,53.34
2022-10-12T04:18:11.710Z,53.17
2022-10-12T04:19:13.949Z,53.75
2022-10-12T04:20:15.695Z,53.58
2022-10-12T04:21:25.423Z,53.59
2022-10-12T04:22:27.462Z,53.38
2022-10-12T04:23:29.202Z,53.88
2022-10-12T04:24:30.898Z,53.65
2022-10-12T04:25:32.626Z,53.20
2022-10-12T04:26:34.396Z,53.64
2022-10-12T04:27:36.509Z,53.32
2022-10-12T04:28:38.501Z,53.57
2022-10-12T04:29:40.225Z,53.57
2022-10-12T04:30:41.959Z,53.55
2022-10-12T04:31:43.773Z,53.23
2022-10-12T04:32:45.497Z,53.59
2022-10-12T04:33:47.286Z,53.18
2022-10-12T04:34:49.004Z,53.79
2022-10-12T04:35:50.881Z,53.82
2022-10-12T04:36:52.575Z,53.36
2022-10-12T04:37:54.285Z,53.30
2022-10-12T04:39:00.833Z,53.05
2022-10-12T04:40:03.719Z,53.70
2022-10-12T04:41:05.736Z,53.35
2022-10-12T04:42:07.469Z,52.88
2022-10-12T04:43:09.185Z,53.31
2022-10-12T04:44:10.909Z,53.09
2022-10-12T04:45:12.827Z,53.83
2022-10-12T04:46:14.689Z,53.74
2022-10-12T04:47:16.469Z,53.16
2022-10-12T04:48:18.179Z,53.51
2022-10-12T04:49:19.893Z,53.67
2022-10-12T04:50:27.546Z,54.07
2022-10-12T04:51:31.533Z,53.41
2022-10-12T04:52:33.476Z,53.76
2022-10-12T04:53:35.340Z,53.64
2022-10-12T04:54:37.119Z,53.96
2022-10-12T04:55:38.833Z,53.40
2022-10-12T04:56:44.165Z,53.77
2022-10-12T04:57:49.978Z,53.72
2022-10-12T04:58:51.695Z,53.87
2022-10-12T04:59:53.427Z,53.56
2022-10-12T05:00:55.183Z,53.67
2022-10-12T05:01:57.087Z,53.70
2022-10-12T05:02:58.939Z,54.00
2022-10-12T05:04:00.661Z,53.44
2022-10-12T05:05:02.393Z,53.97
2022-10-12T05:06:04.346Z,53.59
2022-10-12T05:07:06.094Z,54.15
2022-10-12T05:08:07.816Z,53.54
2022-10-12T05:09:13.216Z,54.16
2022-10-12T05:10:18.496Z,53.99
2022-10-12T05:11:20.219Z,53.53
2022-10-12T05:12:21.969Z,53.45
2022-10-12T05:13:23.902Z,54.03
2022-10-12T05:14:25.683Z,53.49
2022-10-12T05:15:27.406Z,54.09
2022-10-12T05:16:29.264Z,53.63
2022-10-12T05:17:30.974Z,53.43
2022-10-12T05:18:32.707Z,54.20
2022-10-12T05:19:34.424Z,53.93
2022-10-12T05:20:36.288Z,53.62
2022-10-12T05:21:40.140Z,53.57
2022-10-12T05:22:41.875Z,53.89
2022-10-12T05:23:43.872Z,53.46
2022-10-12T05:24:47.989Z,54.15
2022-10-12T05:25:56.186Z,53.54
2022-10-12T05:26:57.953Z,53.90
2022-10-12T05:27:59.649Z,53.96
2022-10-12T05:29:01.475Z,53.38
2022-10-12T05:30:04.953Z,54.33
2022-10-12T05:31:06.640Z,54.02
2022-10-12T05:32:08.365Z,53.71
2022-10-12T05:33:10.126Z,53.88
2022-10-12T05:34:11.842Z,53.75
2022-10-12T05:35:13.556Z,54.11
2022-10-12T05:36:15.278Z,53.90
2022-10-12T05:37:17.181Z,54.22
2022-10-12T05:38:19.133Z,53.76
2022-10-12T05:39:20.933Z,53.71
2022-10-12T05:40:22.629Z,54.29
2022-10-12T05:41:24.379Z,53.64
2022-10-12T05:42:26.091Z,53.97
2022-10-12T05:43:28.567Z,54.27
2022-10-12T05:44:30.349Z,53.44
2022-10-12T05:45:32.261Z,53.97
2022-10-12T05:46:33.979Z,54.26
2022-10-12T05:47:35.968Z,53.83
2022-10-12T05:48:37.880Z,54.44
2022-10-12T05:49:39.682Z,53.71
2022-10-12T05:50:41.687Z,54.33
2022-10-12T05:51:43.479Z,54.54
2022-10-12T05:52:45.262Z,53.79
2022-10-12T05:53:46.966Z,54.46
2022-10-12T05:54:49.403Z,54.58
2022-10-12T05:55:59.903Z,54.47
2022-10-12T05:57:01.733Z,54.19
2022-10-12T05:58:03.463Z,53.80
2022-10-12T05:59:05.192Z,54.05
2022-10-12T06:00:08.800Z,54.29
2022-10-12T06:01:13.576Z,54.40
2022-10-12T06:02:18.043Z,54.27
2022-10-12T06:03:24.087Z,53.65
2022-10-12T06:04:27.706Z,54.22
2022-10-12T06:05:29.418Z,54.20
2022-10-12T06:06:31.256Z,54.25
2022-10-12T06:07:33.110Z,53.72
2022-10-12T06:08:35.549Z,54.37
2022-10-12T06:09:40.257Z,54.34
2022-10-12T06:10:47.208Z,53.62
2022-10-12T06:11:48.968Z,54.19
2022-10-12T06:12:50.657Z,54.72
2022-10-12T06:13:54.182Z,53.97
2022-10-12T06:14:55.937Z,54.63
2022-10-12T06:15:58.053Z,54.69
2022-10-12T06:16:59.800Z,54.64
2022-10-12T06:18:01.608Z,53.93
2022-10-12T06:19:03.869Z,54.18
2022-10-12T06:20:06.290Z,54.03
2022-10-12T06:21:28.791Z,54.08
2022-10-12T06:22:29.726Z,54.07
2022-10-12T06:23:31.533Z,53.85
2022-10-12T06:24:33.218Z,54.14
2022-10-12T06:25:34.936Z,54.02
2022-10-12T06:26:36.692Z,54.72
2022-10-12T06:27:38.392Z,54.45
2022-10-12T06:28:40.169Z,54.39
2022-10-12T06:29:41.944Z,53.83
2022-10-12T06:30:43.754Z,54.11
2022-10-12T06:31:50.474Z,54.03
2022-10-12T06:32:53.311Z,54.29
2022-10-12T06:33:55.166Z,54.35
2022-10-12T06:34:56.973Z,54.25
2022-10-12T06:35:58.674Z,54.67
2022-10-12T06:37:02.051Z,54.32
2022-10-12T06:38:04.403Z,54.29
2022-10-12T06:39:06.126Z,54.55
2022-10-12T06:40:08.821Z,54.11
2022-10-12T06:41:10.544Z,54.80
2022-10-12T06:42:12.349Z,54.37
2022-10-12T06:43:14.407Z,54.15
2022-10-12T06:44:16.166Z,54.42
2022-10-12T06:45:18.310Z,54.45
2022-10-12T06:46:20.073Z,54.91
2022-10-12T06:47:21.773Z,54.65
2022-10-12T06:48:23.489Z,54.42
2022-10-12T06:49:25.885Z,54.72
2022-10-12T06:50:28.039Z,54.74
2022-10-12T06:51:29.929Z,54.93
2022-10-12T06:52:31.743Z,54.77
2022-10-12T06:53:34.919Z,54.24
2022-10-12T06:54:36.635Z,54.64
2022-10-12T06:55:41.630Z,53.97
2022-10-12T06:56:44.215Z,54.14
2022-10-12T06:57:46.552Z,54.63
2022-10-12T06:58:53.073Z,54.07
2022-10-12T06:59:54.807Z,54.06
2022-10-12T07:00:56.524Z,54.66
2022-10-12T07:01:58.307Z,54.11
2022-10-12T07:03:00.048Z,54.32
2022-10-12T07:04:01.786Z,54.52
2022-10-12T07:05:04.222Z,54.37
2022-10-12T07:06:15.155Z,54.38
2022-10-12T07:07:16.875Z,54.02
2022-10-12T07:08:18.810Z,54.09
2022-10-12T07:09:20.554Z,54.64
2022-10-12T07:10:22.592Z,54.74
2022-10-12T07:11:24.295Z,54.50
2022-10-12T07:12:26.759Z,54.49
2022-10-12T07:13:29.011Z,53.95
2022-10-12T07:14:30.743Z,54.56
2022-10-12T07:15:32.454Z,54.10
2022-10-12T07:16:34.402Z,54.42
2022-10-12T07:17:36.610Z,54.04
2022-10-12T07:18:40.002Z,54.23
2022-10-12T07:19:41.741Z,54.60
2022-10-12T07:20:43.631Z,54.76
2022-10-12T07:21:45.334Z,54.27
2022-10-12T07:22:47.105Z,54.88
2022-10-12T07:23:48.870Z,54.93
2022-10-12T07:24:50.669Z,54.63
2022-10-12T07:25:53.352Z,54.56
2022-10-12T07:26:55.060Z,54.55
2022-10-12T07:27:56.887Z,54.40
2022-10-12T07:28:59.199Z,54.82
2022-10-12T07:30:01.528Z,54.62
2022-10-12T07:31:06.358Z,54.91
2022-10-12T07:32:08.219Z,54.35
2022-10-12T07:33:10.178Z,54.98
2022-10-12T07:34:11.906Z,54.90
2022-10-12T07:35:13.724Z,54.55
2022-10-12T07:36:20.888Z,54.66
2022-10-12T07:37:23.453Z,54.99
2022-10-12T07:38:26.253Z,54.75
2022-10-12T07:39:28.327Z,54.97
2022-10-12T07:40:30.765Z,54.81
2022-10-12T07:41:32.466Z,54.99
2022-10-12T07:42:34.231Z,55.04
2022-10-12T07:43:35.948Z,54.68
2022-10-12T07:44:37.833Z,54.73
2022-10-12T07:45:39.793Z,54.67
2022-10-12T07:46:41.892Z,54.72
2022-10-12T07:47:43.845Z,54.70
2022-10-12T07:48:49.985Z,54.61
2022-10-12T07:49:52.183Z,53.97
2022-10-12T07:50:53.928Z,54.51
2022-10-12T07:51:55.829Z,54.63
2022-10-12T07:52:58.140Z,54.38
2022-10-12T07:54:02.733Z,54.39
2022-10-12T07:55:05.022Z,54.46
2022-10-12T07:56:15.110Z,54.44
2022-10-12T07:57:16.917Z,54.39
2022-10-12T07:58:18.702Z,54.04
2022-10-12T07:59:20.438Z,54.17
2022-10-12T08:00:22.219Z,54.02
2022-10-12T08:01:28.180Z,53.95
2022-10-12T08:02:30.347Z,54.02
2022-10-12T08:03:32.262Z,54.00
2022-10-12T08:04:33.976Z,54.16
2022-10-12T08:05:37.981Z,54.07
2022-10-12T08:06:43.904Z,54.12
2022-10-12T08:07:45.648Z,53.64
2022-10-12T08:08:47.860Z,53.89
2022-10-12T08:09:49.706Z,53.68
2022-10-12T08:10:51.476Z,53.71
2022-10-12T08:11:53.214Z,53.43
2022-10-12T08:12:54.946Z,53.66
2022-10-12T08:13:56.828Z,53.74
2022-10-12T08:14:58.547Z,53.73
2022-10-12T08:16:05.785Z,53.58
2022-10-12T08:17:07.541Z,53.50
2022-10-12T08:18:09.273Z,53.41
2022-10-12T08:19:11.604Z,53.34
2022-10-12T08:20:13.336Z,52.91
2022-10-12T08:21:17.688Z,52.98
2022-10-12T08:22:19.577Z,53.08
2022-10-12T08:23:21.335Z,53.06
2022-10-12T08:24:23.123Z,53.19
2022-10-12T08:25:24.834Z,53.04
2022-10-12T08:26:27.418Z,52.91
2022-10-12T08:27:31.183Z,53.20
2022-10-12T08:28:33.798Z,53.31
2022-10-12T08:29:35.516Z,53.12
2022-10-12T08:30:39.407Z,53.05
2022-10-12T08:31:41.148Z,52.71
2022-10-12T08:32:42.938Z,52.31
2022-10-12T08:33:45.013Z,52.86
2022-10-12T08:34:46.713Z,52.46
2022-10-12T08:35:49.291Z,52.90
2022-10-12T08:36:51.832Z,52.38
2022-10-12T08:37:54.331Z,52.91
2022-10-12T08:38:56.393Z,52.50
2022-10-12T08:40:02.292Z,52.68
2022-10-12T08:41:20.304Z,52.19
2022-10-12T08:42:47.419Z,52.28
2022-10-12T08:44:10.174Z,52.27
2022-10-12T08:46:07.674Z,52.18
2022-10-12T08:47:17.621Z,52.21
2022-10-12T08:48:30.140Z,52.50
2022-10-12T08:49:33.484Z,52.08
2022-10-12T08:50:48.427Z,52.26
2022-10-12T08:52:04.342Z,52.09
2022-10-12T08:53:22.843Z,51.88
2022-10-12T08:54:31.854Z,52.37
2022-10-12T08:55:40.822Z,51.64
2022-10-12T08:56:44.453Z,52.27
2022-10-12T08:57:49.204Z,51.59
2022-10-12T08:58:53.566Z,51.62
2022-10-12T08:59:55.371Z,51.48
2022-10-12T09:01:36.809Z,51.85
2022-10-12T09:03:07.011Z,52.23
2022-10-12T09:04:23.692Z,51.31
2022-10-12T09:05:39.303Z,51.42
2022-10-12T09:07:19.835Z,51.27
2022-10-12T09:08:45.918Z,51.24
2022-10-12T09:10:37.349Z,50.97
2022-10-12T09:12:05.810Z,51.07
2022-10-12T09:13:17.800Z,51.25
2022-10-12T09:14:26.715Z,51.52
2022-10-12T09:16:06.200Z,51.14
2022-10-12T09:17:32.765Z,50.78
2022-10-12T09:18:46.149Z,51.34
2022-10-12T09:19:49.693Z,51.12
2022-10-12T09:20:53.117Z,50.91
2022-10-12T09:21:56.995Z,51.00
2022-10-12T09:23:26.268Z,51.08
2022-10-12T09:24:35.935Z,50.85
2022-10-12T09:25:38.472Z,50.64
2022-10-12T09:26:40.520Z,50.56
2022-10-12T09:27:46.933Z,50.79
2022-10-12T09:28:56.438Z,50.51
2022-10-12T09:30:05.359Z,50.46
2022-10-12T09:31:09.929Z,50.91
2022-10-12T09:33:03.700Z,50.81
2022-10-12T09:34:08.455Z,50.31
2022-10-12T09:35:14.827Z,50.27
2022-10-12T09:36:22.273Z,50.50
2022-10-12T09:37:33.304Z,50.38
2022-10-12T09:38:38.088Z,50.00
2022-10-12T09:39:40.738Z,49.85
2022-10-12T09:40:42.702Z,49.27
2022-10-12T09:41:47.416Z,49.00
2022-10-12T09:42:50.832Z,48.86
2022-10-12T09:43:59.045Z,48.58
2022-10-12T09:45:18.525Z,48.35
2022-10-12T09:46:55.896Z,47.94
2022-10-12T09:48:24.079Z,47.48
2022-10-12T09:49:46.061Z,47.00
2022-10-12T09:50:58.913Z,46.82
2022-10-12T09:52:01.021Z,46.16
2022-10-12T09:53:13.045Z,45.59
2022-10-12T09:54:22.348Z,45.57
2022-10-12T09:56:47.839Z,44.83
2022-10-12T09:58:02.567Z,44.49
2022-10-12T09:59:28.945Z,44.15
2022-10-12T10:00:34.542Z,43.43
2022-10-12T10:01:38.581Z,42.91
2022-10-12T10:02:50.248Z,42.84
2022-10-12T10:04:23.095Z,42.67
2022-10-12T10:05:36.271Z,42.51
2022-10-12T10:06:42.251Z,42.30
2022-10-12T10:07:43.956Z,42.06
2022-10-12T10:08:46.709Z,41.78
2022-10-12T10:10:14.004Z,42.20
2022-10-12T10:11:23.079Z,42.13
2022-10-12T10:12:27.333Z,42.28
2022-10-12T10:13:35.521Z,42.25
2022-10-12T10:14:37.516Z,42.40
2022-10-12T10:15:39.391Z,42.25
2022-10-12T10:16:50.309Z,42.44
2022-10-12T10:17:57.389Z,42.56
2022-10-12T10:19:02.116Z,42.68
2022-10-12T10:20:08.237Z,42.83
2022-10-12T10:21:14.459Z,42.70
2022-10-12T10:22:16.737Z,43.06
2022-10-12T10:23:30.597Z,42.85
2022-10-12T10:24:33.705Z,43.16
2022-10-12T10:25:36.121Z,43.15
2022-10-12T10:27:00.493Z,43.71
2022-10-12T10:28:27.637Z,43.67
2022-10-12T10:29:38.660Z,43.94
2022-10-12T10:30:41.406Z,44.00
2022-10-12T10:31:46.326Z,44.03
2022-10-12T10:32:48.865Z,44.20
2022-10-12T10:34:24.246Z,44.42
2022-10-12T10:35:25.979Z,44.59
2022-10-12T10:36:28.263Z,44.76
2022-10-12T10:37:32.392Z,44.94
2022-10-12T10:38:57.900Z,45.07
2022-10-12T10:40:00.273Z,45.14
2022-10-12T10:41:06.693Z,45.36
2022-10-12T10:42:31.517Z,45.73
2022-10-12T10:43:34.632Z,45.86
2022-10-12T10:44:37.118Z,46.20
2022-10-12T10:45:53.106Z,45.95
2022-10-12T10:47:17.155Z,46.26
2022-10-12T10:48:37.954Z,46.28
2022-10-12T10:49:59.225Z,46.43
2022-10-12T10:51:06.989Z,46.56
2022-10-12T10:52:24.422Z,46.61
2022-10-12T10:53:33.215Z,46.73
2022-10-12T10:54:40.969Z,46.96
2022-10-12T10:55:54.507Z,46.95
2022-10-12T10:57:11.515Z,46.81
2022-10-12T10:58:47.875Z,47.13
2022-10-12T11:00:33.378Z,47.22
2022-10-12T11:02:15.814Z,47.36
2022-10-12T11:03:48.285Z,47.56
2022-10-12T11:05:32.243Z,47.43
2022-10-12T11:06:41.002Z,47.88
2022-10-12T11:08:15.285Z,47.86
2022-10-12T11:09:34.474Z,48.07
2022-10-12T11:11:01.989Z,48.25
2022-10-12T11:12:13.267Z,48.24
2022-10-12T11:13:31.118Z,48.01
2022-10-12T11:14:44.156Z,48.54
2022-10-12T11:16:04.320Z,48.46
2022-10-12T11:17:16.973Z,48.42
2022-10-12T11:18:33.734Z,48.28
2022-10-12T11:19:49.421Z,48.46
2022-10-12T11:21:04.692Z,48.64
2022-10-12T11:22:17.069Z,49.12
2022-10-12T11:23:55.278Z,48.90
2022-10-12T11:25:20.953Z,48.75
2022-10-12T11:26:37.776Z,49.13
2022-10-12T11:27:42.213Z,48.86
2022-10-12T11:28:44.500Z,49.48
2022-10-12T11:29:54.137Z,49.13
2022-10-12T11:31:36.023Z,49.41
2022-10-12T11:32:51.673Z,49.13
2022-10-12T11:33:58.730Z,49.21
2022-10-12T11:35:05.968Z,49.46
2022-10-12T11:36:23.951Z,49.30
2022-10-12T11:37:39.482Z,49.61
2022-10-12T11:38:57.123Z,49.29
2022-10-12T11:40:02.497Z,49.48
2022-10-12T11:41:36.073Z,49.30
2022-10-12T11:42:43.642Z,49.47
2022-10-12T11:44:06.330Z,49.56
2022-10-12T11:45:27.336Z,49.81
2022-10-12T11:46:46.999Z,49.69
2022-10-12T11:47:55.889Z,49.60
2022-10-12T11:49:19.173Z,49.46
2022-10-12T11:50:28.666Z,49.67
2022-10-12T11:51:30.376Z,49.72
2022-10-12T11:52:43.792Z,49.42
2022-10-12T11:54:17.727Z,49.56
2022-10-12T11:55:41.316Z,49.49
2022-10-12T11:56:49.917Z,49.71
2022-10-12T11:57:55.234Z,49.38
2022-10-12T11:59:28.237Z,49.34
2022-10-12T12:01:08.463Z,49.37
2022-10-12T12:02:31.896Z,48.92
2022-10-12T12:04:36.435Z,49.28
2022-10-12T12:05:34.035Z,49.24
2022-10-12T12:07:15.834Z,49.42
2022-10-12T12:08:55.283Z,49.13
2022-10-12T12:09:57.061Z,49.35
2022-10-12T12:11:20.247Z,49.12
2022-10-12T12:12:28.184Z,49.33
2022-10-12T12:13:30.344Z,49.02
2022-10-12T12:14:31.990Z,48.95
2022-10-12T12:15:33.876Z,49.19
2022-10-12T12:16:43.306Z,49.08
2022-10-12T12:18:12.007Z,49.09
2022-10-12T12:19:40.366Z,49.20
2022-10-12T12:20:42.510Z,49.24
2022-10-12T12:22:23.527Z,48.88
2022-10-12T12:23:43.328Z,48.79
2022-10-12T12:25:23.819Z,48.87
2022-10-12T12:26:30.299Z,49.08
2022-10-12T12:27:43.656Z,48.78
2022-10-12T12:28:52.750Z,49.21
2022-10-12T12:29:55.746Z,49.07
2022-10-12T12:31:02.369Z,48.83
2022-10-12T12:32:04.863Z,48.91
2022-10-12T12:33:35.521Z,48.67
2022-10-12T12:35:00.499Z,48.82
2022-10-12T12:36:10.541Z,48.75
2022-10-12T12:37:12.888Z,48.82
2022-10-12T12:38:14.552Z,48.87
2022-10-12T12:39:33.524Z,48.89
2022-10-12T12:40:36.136Z,48.59
2022-10-12T12:42:02.252Z,48.62
2022-10-12T12:43:37.891Z,48.37
2022-10-12T12:44:45.525Z,48.22
2022-10-12T12:45:59.958Z,48.20
2022-10-12T12:47:01.660Z,48.39
2022-10-12T12:49:46.379Z,48.60
2022-10-12T12:50:49.104Z,48.53
2022-10-12T12:51:54.990Z,48.51
2022-10-12T12:53:22.140Z,48.54
2022-10-12T12:54:25.130Z,48.30
2022-10-12T12:56:02.350Z,48.16
2022-10-12T12:57:28.432Z,48.26
2022-10-12T12:58:51.476Z,48.27
2022-10-12T13:00:06.527Z,48.19
2022-10-12T13:01:40.130Z,48.20
2022-10-12T13:03:02.471Z,48.22
2022-10-12T13:04:22.082Z,48.26
2022-10-12T13:05:42.362Z,48.10
2022-10-12T13:07:17.914Z,48.20
2022-10-12T13:08:31.553Z,48.44
2022-10-12T13:09:55.339Z,48.10
2022-10-12T13:11:02.737Z,48.28
2022-10-12T13:12:28.810Z,48.42
2022-10-12T13:14:13.547Z,48.06
2022-10-12T13:16:01.354Z,48.22
2022-10-12T13:17:33.023Z,48.12
2022-10-12T13:18:55.811Z,47.83
2022-10-12T13:19:59.467Z,48.15
2022-10-12T13:21:06.426Z,47.85
2022-10-12T13:22:35.440Z,47.80
2022-10-12T13:23:37.502Z,47.90
2022-10-12T13:25:02.877Z,47.89
2022-10-12T13:26:10.834Z,47.66
2022-10-12T13:27:23.224Z,47.82
2022-10-12T13:28:33.086Z,47.88
2022-10-12T13:30:00.336Z,48.13
2022-10-12T13:31:16.260Z,47.82
2022-10-12T13:32:42.174Z,47.89
2022-10-12T13:34:05.730Z,47.79
2022-10-12T13:35:29.400Z,47.77
2022-10-12T13:36:36.757Z,47.76
2022-10-12T13:37:38.483Z,47.73
2022-10-12T13:38:40.265Z,47.55
2022-10-12T13:39:46.867Z,47.88
2022-10-12T13:41:11.925Z,47.66
2022-10-12T13:42:26.784Z,47.81
2022-10-12T13:43:52.198Z,47.71
2022-10-12T13:44:54.211Z,47.63
2022-10-12T13:45:56.428Z,47.87
2022-10-12T13:47:02.277Z,47.81
2022-10-12T13:48:05.614Z,47.89
2022-10-12T13:49:19.397Z,47.89
2022-10-12T13:50:21.581Z,47.81
2022-10-12T13:51:27.368Z,47.69
2022-10-12T13:52:33.296Z,47.74
2022-10-12T13:53:40.525Z,47.68
2022-10-12T13:54:46.253Z,47.45
2022-10-12T13:55:59.637Z,47.58
2022-10-12T13:58:29.612Z,47.71
2022-10-12T13:59:38.834Z,47.65
2022-10-12T14:00:47.997Z,47.46
2022-10-12T14:01:55.758Z,47.54
2022-10-12T14:03:06.244Z,47.38
2022-10-12T14:04:11.414Z,47.45
2022-10-12T14:05:19.894Z,47.45
2022-10-12T14:06:32.446Z,47.41
2022-10-12T14:07:42.601Z,47.62
2022-10-12T14:08:44.463Z,47.36
2022-10-12T14:09:54.541Z,47.29
2022-10-12T14:10:59.681Z,47.31
2022-10-12T14:12:01.687Z,47.53
2022-10-12T14:13:05.409Z,47.55
2022-10-12T14:14:33.088Z,47.55
2022-10-12T14:15:39.504Z,47.85
2022-10-12T14:16:41.263Z,47.71
2022-10-12T14:17:45.548Z,47.51
2022-10-12T14:18:47.552Z,47.88
2022-10-12T14:19:53.579Z,47.66
2022-10-12T14:21:15.092Z,47.72
2022-10-12T14:22:32.982Z,47.70
2022-10-12T14:23:34.728Z,47.56
2022-10-12T14:24:37.457Z,47.68
2022-10-12T14:25:51.192Z,47.51
2022-10-12T14:27:01.025Z,47.58
2022-10-12T14:28:06.911Z,47.51
2022-10-12T14:29:42.985Z,47.35
2022-10-12T14:30:54.116Z,47.27
2022-10-12T14:31:59.219Z,47.37
2022-10-12T14:33:14.864Z,47.25
2022-10-12T14:35:10.724Z,47.23
2022-10-12T14:36:25.678Z,47.47
2022-10-12T14:37:29.846Z,47.04
2022-10-12T14:38:45.120Z,47.10
2022-10-12T14:39:50.467Z,47.03
2022-10-12T14:40:52.244Z,47.24
2022-10-12T14:41:54.339Z,47.10
2022-10-12T14:43:13.014Z,47.04
2022-10-12T14:44:16.277Z,47.23
2022-10-12T14:45:25.412Z,47.32
2022-10-12T14:46:27.539Z,47.02
2022-10-12T14:47:38.585Z,47.17
2022-10-12T14:48:40.320Z,47.21